sensor_id;sensor_type;location;lat;lon;timestamp;pressure;altitude;pressure_sealevel;temperature;humidity
6599;BME280;3335;43.198;27.918;2023-02-12T00:01:47;147176.72;;;-0.51;100.00
6599;BME280;3335;43.198;27.918;2023-02-12T00:04:14;147189.09;;;-0.46;100.00
6599;BME280;3335;43.198;27.918;2023-02-12T00:06:41;147181.69;;;-0.49;100.00
6599;BME280;3335;43.198;27.918;2023-02-12T00:09:08;147186.63;;;-0.47;100.00
6599;BME280;3335;43.198;27.918;2023-02-12T00:11:35;147210.16;;;-0.37;100.00
6599;BME280;3335;43.198;27.918;2023-02-12T00:14:02;147197.75;;;-0.43;100.00
6599;BME280;3335;43.198;27.918;2023-02-12T00:16:30;147191.59;;;-0.45;100.00
6599;BME280;3335;43.198;27.918;2023-02-12T00:18:58;147201.50;;;-0.41;100.00
6599;BME280;3335;43.198;27.918;2023-02-12T00:21:25;147195.31;;;-0.43;100.00
6599;BME280;3335;43.198;27.918;2023-02-12T00:23:52;147168.06;;;-0.55;100.00
6599;BME280;3335;43.198;27.918;2023-02-12T00:26:21;147186.63;;;-0.47;100.00
6599;BME280;3335;43.198;27.918;2023-02-12T00:28:48;147207.72;;;-0.38;100.00
6599;BME280;3335;43.198;27.918;2023-02-12T00:31:17;147199.00;;;-0.42;100.00
6599;BME280;3335;43.198;27.918;2023-02-12T00:33:45;147191.59;;;-0.45;100.00
6599;BME280;3335;43.198;27.918;2023-02-12T00:36:15;147197.75;;;-0.43;100.00
6599;BME280;3335;43.198;27.918;2023-02-12T00:38:44;147201.50;;;-0.41;100.00
6599;BME280;3335;43.198;27.918;2023-02-12T00:41:11;147206.47;;;-0.39;100.00
6599;BME280;3335;43.198;27.918;2023-02-12T00:43:38;147221.28;;;-0.33;100.00
6599;BME280;3335;43.198;27.918;2023-02-12T00:46:05;147218.84;;;-0.34;100.00
6599;BME280;3335;43.198;27.918;2023-02-12T00:48:33;147220.09;;;-0.33;100.00
6599;BME280;3335;43.198;27.918;2023-02-12T00:51:00;147203.97;;;-0.40;100.00
6599;BME280;3335;43.198;27.918;2023-02-12T00:53:29;147217.59;;;-0.34;100.00
6599;BME280;3335;43.198;27.918;2023-02-12T00:55:56;147208.91;;;-0.38;100.00
6599;BME280;3335;43.198;27.918;2023-02-12T00:58:23;147211.38;;;-0.37;100.00
6599;BME280;3335;43.198;27.918;2023-02-12T01:00:50;147228.75;;;-0.30;100.00
6599;BME280;3335;43.198;27.918;2023-02-12T01:03:17;147233.66;;;-0.28;100.00
6599;BME280;3335;43.198;27.918;2023-02-12T01:05:44;147231.22;;;-0.29;100.00
6599;BME280;3335;43.198;27.918;2023-02-12T01:08:12;147233.66;;;-0.28;100.00
6599;BME280;3335;43.198;27.918;2023-02-12T01:10:40;147236.16;;;-0.27;100.00
6599;BME280;3335;43.198;27.918;2023-02-12T01:13:10;147243.63;;;-0.24;100.00
6599;BME280;3335;43.198;27.918;2023-02-12T01:15:37;147239.88;;;-0.25;100.00
6599;BME280;3335;43.198;27.918;2023-02-12T01:18:04;147237.41;;;-0.26;100.00
6599;BME280;3335;43.198;27.918;2023-02-12T01:20:31;147241.13;;;-0.25;100.00
6599;BME280;3335;43.198;27.918;2023-02-12T01:22:58;147247.31;;;-0.22;100.00
6599;BME280;3335;43.198;27.918;2023-02-12T01:25:26;147252.28;;;-0.20;100.00
6599;BME280;3335;43.198;27.918;2023-02-12T01:27:54;147263.41;;;-0.16;100.00
6599;BME280;3335;43.198;27.918;2023-02-12T01:30:22;147251.03;;;-0.21;100.00
6599;BME280;3335;43.198;27.918;2023-02-12T01:32:49;147280.75;;;-0.09;100.00
6599;BME280;3335;43.198;27.918;2023-02-12T01:35:16;147275.81;;;-0.11;100.00
6599;BME280;3335;43.198;27.918;2023-02-12T01:37:43;147268.34;;;-0.14;100.00
6599;BME280;3335;43.198;27.918;2023-02-12T01:40:13;147253.53;;;-0.20;100.00
6599;BME280;3335;43.198;27.918;2023-02-12T01:42:40;147260.94;;;-0.17;100.00
6599;BME280;3335;43.198;27.918;2023-02-12T01:45:41;147255.97;;;-0.19;100.00
6599;BME280;3335;43.198;27.918;2023-02-12T01:48:10;147264.66;;;-0.15;100.00
6599;BME280;3335;43.198;27.918;2023-02-12T01:50:38;147258.44;;;-0.18;100.00
6599;BME280;3335;43.198;27.918;2023-02-12T01:53:05;147269.59;;;-0.13;100.00
6599;BME280;3335;43.198;27.918;2023-02-12T01:55:33;147263.41;;;-0.16;100.00
6599;BME280;3335;43.198;27.918;2023-02-12T01:58:00;147268.34;;;-0.14;100.00
6599;BME280;3335;43.198;27.918;2023-02-12T02:00:27;147243.63;;;-0.24;100.00
6599;BME280;3335;43.198;27.918;2023-02-12T02:02:57;147239.88;;;-0.25;100.00
6599;BME280;3335;43.198;27.918;2023-02-12T02:05:30;147236.16;;;-0.27;100.00
6599;BME280;3335;43.198;27.918;2023-02-12T02:07:59;147238.66;;;-0.26;100.00
6599;BME280;3335;43.198;27.918;2023-02-12T02:10:25;147248.53;;;-0.22;100.00
6599;BME280;3335;43.198;27.918;2023-02-12T02:12:52;147248.53;;;-0.22;100.00
6599;BME280;3335;43.198;27.918;2023-02-12T02:15:39;147260.94;;;-0.17;100.00
6599;BME280;3335;43.198;27.918;2023-02-12T02:18:12;147255.97;;;-0.19;100.00
6599;BME280;3335;43.198;27.918;2023-02-12T02:23:54;147265.91;;;-0.15;100.00
6599;BME280;3335;43.198;27.918;2023-02-12T02:26:57;147257.19;;;-0.18;100.00
6599;BME280;3335;43.198;27.918;2023-02-12T02:32:48;147253.53;;;-0.20;100.00
6599;BME280;3335;43.198;27.918;2023-02-12T02:35:24;147260.94;;;-0.17;100.00
6599;BME280;3335;43.198;27.918;2023-02-12T02:37:59;147259.69;;;-0.17;100.00
6599;BME280;3335;43.198;27.918;2023-02-12T02:40:35;147253.53;;;-0.20;100.00
6599;BME280;3335;43.198;27.918;2023-02-12T02:43:06;147283.22;;;-0.08;100.00
6599;BME280;3335;43.198;27.918;2023-02-12T02:45:40;147270.84;;;-0.13;100.00
6599;BME280;3335;43.198;27.918;2023-02-12T02:48:13;147298.09;;;-0.02;100.00
6599;BME280;3335;43.198;27.918;2023-02-12T02:50:46;147298.09;;;-0.02;100.00
6599;BME280;3335;43.198;27.918;2023-02-12T02:53:18;147312.97;;;0.05;100.00
6599;BME280;3335;43.198;27.918;2023-02-12T02:55:49;147312.97;;;0.05;100.00
6599;BME280;3335;43.198;27.918;2023-02-12T02:58:20;147317.91;;;0.07;100.00
6599;BME280;3335;43.198;27.918;2023-02-12T03:00:54;147322.88;;;0.09;100.00
6599;BME280;3335;43.198;27.918;2023-02-12T03:03:28;147322.88;;;0.09;100.00
6599;BME280;3335;43.198;27.918;2023-02-12T03:05:59;147310.50;;;0.04;100.00
6599;BME280;3335;43.198;27.918;2023-02-12T03:08:32;147319.16;;;0.07;100.00
6599;BME280;3335;43.198;27.918;2023-02-12T03:11:02;147316.66;;;0.06;100.00
6599;BME280;3335;43.198;27.918;2023-02-12T03:13:35;147305.50;;;0.02;100.00
6599;BME280;3335;43.198;27.918;2023-02-12T03:16:07;147312.97;;;0.05;100.00
6599;BME280;3335;43.198;27.918;2023-02-12T03:18:43;147306.75;;;0.02;100.00
6599;BME280;3335;43.198;27.918;2023-02-12T03:21:16;147290.63;;;-0.05;100.00
6599;BME280;3335;43.198;27.918;2023-02-12T03:23:46;147295.59;;;-0.03;100.00
6599;BME280;3335;43.198;27.918;2023-02-12T03:26:20;147280.75;;;-0.09;100.00
6599;BME280;3335;43.198;27.918;2023-02-12T03:28:48;147283.22;;;-0.08;100.00
6599;BME280;3335;43.198;27.918;2023-02-12T03:31:22;147124.75;;;-0.72;100.00
6599;BME280;3335;43.198;27.918;2023-02-12T03:34:03;147290.63;;;-0.05;100.00
6599;BME280;3335;43.198;27.918;2023-02-12T03:36:37;147283.22;;;-0.08;100.00
6599;BME280;3335;43.198;27.918;2023-02-12T03:39:11;147284.47;;;-0.07;100.00
6599;BME280;3335;43.198;27.918;2023-02-12T03:41:42;147258.44;;;-0.18;100.00
6599;BME280;3335;43.198;27.918;2023-02-12T03:44:18;147255.97;;;-0.19;100.00
6599;BME280;3335;43.198;27.918;2023-02-12T03:47:01;147257.19;;;-0.18;100.00
6599;BME280;3335;43.198;27.918;2023-02-12T03:49:37;147268.34;;;-0.14;100.00
6599;BME280;3335;43.198;27.918;2023-02-12T03:52:08;147255.97;;;-0.19;100.00
6599;BME280;3335;43.198;27.918;2023-02-12T03:54:35;147260.94;;;-0.17;100.00
6599;BME280;3335;43.198;27.918;2023-02-12T03:57:06;147263.41;;;-0.16;100.00
6599;BME280;3335;43.198;27.918;2023-02-12T03:59:35;147274.56;;;-0.11;100.00
6599;BME280;3335;43.198;27.918;2023-02-12T04:02:03;147281.97;;;-0.08;100.00
6599;BME280;3335;43.198;27.918;2023-02-12T04:04:30;147251.03;;;-0.21;100.00
6599;BME280;3335;43.198;27.918;2023-02-12T04:06:59;147283.22;;;-0.08;100.00
6599;BME280;3335;43.198;27.918;2023-02-12T04:09:27;147283.22;;;-0.08;100.00
6599;BME280;3335;43.198;27.918;2023-02-12T04:14:45;147274.56;;;-0.11;100.00
6599;BME280;3335;43.198;27.918;2023-02-12T04:17:21;147260.94;;;-0.17;100.00
6599;BME280;3335;43.198;27.918;2023-02-12T04:20:00;147246.06;;;-0.23;100.00
6599;BME280;3335;43.198;27.918;2023-02-12T04:22:40;147228.75;;;-0.30;100.00
6599;BME280;3335;43.198;27.918;2023-02-12T04:25:20;147253.53;;;-0.20;100.00
6599;BME280;3335;43.198;27.918;2023-02-12T04:27:55;147259.69;;;-0.17;100.00
6599;BME280;3335;43.198;27.918;2023-02-12T04:30:27;147263.41;;;-0.16;100.00
6599;BME280;3335;43.198;27.918;2023-02-12T04:32:59;147230.00;;;-0.29;100.00
6599;BME280;3335;43.198;27.918;2023-02-12T04:35:31;147251.03;;;-0.21;100.00
6599;BME280;3335;43.198;27.918;2023-02-12T04:38:06;147267.09;;;-0.14;100.00
6599;BME280;3335;43.198;27.918;2023-02-12T04:40:37;147247.31;;;-0.22;100.00
6599;BME280;3335;43.198;27.918;2023-02-12T04:43:05;147237.41;;;-0.26;100.00
6599;BME280;3335;43.198;27.918;2023-02-12T04:45:33;147238.66;;;-0.26;100.00
6599;BME280;3335;43.198;27.918;2023-02-12T04:48:01;147222.53;;;-0.32;100.00
6599;BME280;3335;43.198;27.918;2023-02-12T04:50:37;147223.78;;;-0.32;100.00
6599;BME280;3335;43.198;27.918;2023-02-12T04:53:06;147213.88;;;-0.36;100.00
6599;BME280;3335;43.198;27.918;2023-02-12T04:55:33;147220.09;;;-0.33;100.00
6599;BME280;3335;43.198;27.918;2023-02-12T04:58:00;147211.38;;;-0.37;100.00
6599;BME280;3335;43.198;27.918;2023-02-12T05:00:27;147207.72;;;-0.38;100.00
6599;BME280;3335;43.198;27.918;2023-02-12T05:02:54;147208.91;;;-0.38;100.00
6599;BME280;3335;43.198;27.918;2023-02-12T05:05:21;147197.75;;;-0.43;100.00
6599;BME280;3335;43.198;27.918;2023-02-12T05:07:48;147208.91;;;-0.38;100.00
6599;BME280;3335;43.198;27.918;2023-02-12T05:10:16;147220.09;;;-0.33;100.00
6599;BME280;3335;43.198;27.918;2023-02-12T05:12:43;147212.63;;;-0.36;100.00
6599;BME280;3335;43.198;27.918;2023-02-12T05:15:10;147208.91;;;-0.38;100.00
6599;BME280;3335;43.198;27.918;2023-02-12T05:17:37;147216.38;;;-0.35;100.00
6599;BME280;3335;43.198;27.918;2023-02-12T05:20:05;147218.84;;;-0.34;100.00
6599;BME280;3335;43.198;27.918;2023-02-12T05:22:32;147236.16;;;-0.27;100.00
6599;BME280;3335;43.198;27.918;2023-02-12T05:24:59;147231.22;;;-0.29;100.00
6599;BME280;3335;43.198;27.918;2023-02-12T05:27:27;147237.41;;;-0.26;100.00
6599;BME280;3335;43.198;27.918;2023-02-12T05:29:54;147238.66;;;-0.26;100.00
6599;BME280;3335;43.198;27.918;2023-02-12T05:32:22;147243.63;;;-0.24;100.00
6599;BME280;3335;43.198;27.918;2023-02-12T05:34:49;147258.44;;;-0.18;100.00
6599;BME280;3335;43.198;27.918;2023-02-12T05:37:16;147258.44;;;-0.18;100.00
6599;BME280;3335;43.198;27.918;2023-02-12T05:39:42;147265.91;;;-0.15;100.00
6599;BME280;3335;43.198;27.918;2023-02-12T05:42:09;147275.81;;;-0.11;100.00
6599;BME280;3335;43.198;27.918;2023-02-12T05:44:38;147272.06;;;-0.12;100.00
6599;BME280;3335;43.198;27.918;2023-02-12T05:47:04;147275.81;;;-0.11;100.00
6599;BME280;3335;43.198;27.918;2023-02-12T05:49:31;147301.81;;;0.00;100.00
6599;BME280;3335;43.198;27.918;2023-02-12T05:51:59;147326.56;;;0.10;100.00
6599;BME280;3335;43.198;27.918;2023-02-12T05:54:25;147350.09;;;0.20;100.00
6599;BME280;3335;43.198;27.918;2023-02-12T05:56:52;147372.41;;;0.29;100.00
6599;BME280;3335;43.198;27.918;2023-02-12T05:59:21;147392.25;;;0.37;100.00
6599;BME280;3335;43.198;27.918;2023-02-12T06:01:51;147426.94;;;0.51;100.00
6599;BME280;3335;43.198;27.918;2023-02-12T06:04:19;147449.25;;;0.60;100.00
6599;BME280;3335;43.198;27.918;2023-02-12T06:06:48;147476.47;;;0.71;100.00
6599;BME280;3335;43.198;27.918;2023-02-12T06:09:14;147501.28;;;0.81;100.00
6599;BME280;3335;43.198;27.918;2023-02-12T06:11:42;147471.56;;;0.69;100.00
6599;BME280;3335;43.198;27.918;2023-02-12T06:14:11;147506.25;;;0.83;100.00
6599;BME280;3335;43.198;27.918;2023-02-12T06:16:39;147564.53;;;1.07;100.00
6599;BME280;3335;43.198;27.918;2023-02-12T06:19:08;147585.59;;;1.16;100.00
6599;BME280;3335;43.198;27.918;2023-02-12T06:21:35;147605.41;;;1.24;100.00
6599;BME280;3335;43.198;27.918;2023-02-12T06:24:02;147610.38;;;1.26;100.00
6599;BME280;3335;43.198;27.918;2023-02-12T06:26:30;147638.94;;;1.38;100.00
6599;BME280;3335;43.198;27.918;2023-02-12T06:28:56;147660.00;;;1.46;100.00
6599;BME280;3335;43.198;27.918;2023-02-12T06:31:25;147683.56;;;1.56;100.00
6599;BME280;3335;43.198;27.918;2023-02-12T06:33:53;147652.53;;;1.43;100.00
6599;BME280;3335;43.198;27.918;2023-02-12T06:36:22;147702.16;;;1.63;100.00
6599;BME280;3335;43.198;27.918;2023-02-12T06:38:49;147704.66;;;1.64;100.00
6599;BME280;3335;43.198;27.918;2023-02-12T06:41:16;147724.47;;;1.72;100.00
6599;BME280;3335;43.198;27.918;2023-02-12T06:43:44;147744.31;;;1.81;100.00
6599;BME280;3335;43.198;27.918;2023-02-12T06:46:11;147755.53;;;1.85;100.00
6599;BME280;3335;43.198;27.918;2023-02-12T06:48:38;147769.13;;;1.91;100.00
6599;BME280;3335;43.198;27.918;2023-02-12T06:51:06;147798.94;;;2.03;100.00
6599;BME280;3335;43.198;27.918;2023-02-12T06:53:35;147811.34;;;2.08;100.00
6599;BME280;3335;43.198;27.918;2023-02-12T06:56:02;147808.84;;;2.07;100.00
6599;BME280;3335;43.198;27.918;2023-02-12T06:58:30;147847.34;;;2.23;100.00
6599;BME280;3335;43.198;27.918;2023-02-12T07:01:06;147883.31;;;2.37;100.00
6599;BME280;3335;43.198;27.918;2023-02-12T07:03:35;147900.69;;;2.44;100.00
6599;BME280;3335;43.198;27.918;2023-02-12T07:06:04;147928.00;;;2.55;100.00
6599;BME280;3335;43.198;27.918;2023-02-12T07:08:31;147942.88;;;2.61;100.00
6599;BME280;3335;43.198;27.918;2023-02-12T07:10:59;147970.19;;;2.73;100.00
6599;BME280;3335;43.198;27.918;2023-02-12T07:13:26;147998.78;;;2.84;100.00
6599;BME280;3335;43.198;27.918;2023-02-12T07:15:53;147985.09;;;2.79;100.00
6599;BME280;3335;43.198;27.918;2023-02-12T07:18:19;148013.63;;;2.90;100.00
6599;BME280;3335;43.198;27.918;2023-02-12T07:20:46;148022.38;;;2.94;100.00
6599;BME280;3335;43.198;27.918;2023-02-12T07:23:13;148039.72;;;3.01;100.00
6599;BME280;3335;43.198;27.918;2023-02-12T07:25:40;148072.00;;;3.14;100.00
6599;BME280;3335;43.198;27.918;2023-02-12T07:28:08;148096.84;;;3.24;100.00
6599;BME280;3335;43.198;27.918;2023-02-12T07:30:36;148077.00;;;3.16;100.00
6599;BME280;3335;43.198;27.918;2023-02-12T07:33:03;148109.28;;;3.29;100.00
6599;BME280;3335;43.198;27.918;2023-02-12T07:35:30;148086.91;;;3.20;100.00
6599;BME280;3335;43.198;27.918;2023-02-12T07:37:57;148089.41;;;3.21;100.00
6599;BME280;3335;43.198;27.918;2023-02-12T07:40:24;148131.63;;;3.38;100.00
6599;BME280;3335;43.198;27.918;2023-02-12T07:42:54;148149.03;;;3.45;100.00
6599;BME280;3335;43.198;27.918;2023-02-12T07:45:22;148163.97;;;3.51;100.00
6599;BME280;3335;43.198;27.918;2023-02-12T07:47:49;148176.34;;;3.57;100.00
6599;BME280;3335;43.198;27.918;2023-02-12T07:50:16;148191.25;;;3.63;100.00
6599;BME280;3335;43.198;27.918;2023-02-12T07:52:43;148187.50;;;3.61;100.00
6599;BME280;3335;43.198;27.918;2023-02-12T07:55:10;148166.41;;;3.52;100.00
6599;BME280;3335;43.198;27.918;2023-02-12T07:57:37;148198.75;;;3.66;100.00
6599;BME280;3335;43.198;27.918;2023-02-12T08:00:05;148197.50;;;3.65;100.00
6599;BME280;3335;43.198;27.918;2023-02-12T08:02:33;148216.13;;;3.73;100.00
6599;BME280;3335;43.198;27.918;2023-02-12T08:05:00;148240.97;;;3.83;100.00
6599;BME280;3335;43.198;27.918;2023-02-12T08:07:27;148240.97;;;3.83;100.00
6599;BME280;3335;43.198;27.918;2023-02-12T08:09:54;148265.81;;;3.93;100.00
6599;BME280;3335;43.198;27.918;2023-02-12T08:12:21;148280.75;;;3.99;100.00
6599;BME280;3335;43.198;27.918;2023-02-12T08:14:49;148293.13;;;4.04;100.00
6599;BME280;3335;43.198;27.918;2023-02-12T08:17:16;148304.31;;;4.09;100.00
6599;BME280;3335;43.198;27.918;2023-02-12T08:19:44;148298.13;;;4.06;100.00
6599;BME280;3335;43.198;27.918;2023-02-12T08:22:11;148308.06;;;4.10;100.00
6599;BME280;3335;43.198;27.918;2023-02-12T08:24:38;148331.69;;;4.20;100.00
6599;BME280;3335;43.198;27.918;2023-02-12T08:27:06;148352.81;;;4.28;100.00
6599;BME280;3335;43.198;27.918;2023-02-12T08:29:33;148393.84;;;4.45;100.00
6599;BME280;3335;43.198;27.918;2023-02-12T08:32:02;148392.59;;;4.45;100.00
6599;BME280;3335;43.198;27.918;2023-02-12T08:34:32;148387.63;;;4.43;100.00
6599;BME280;3335;43.198;27.918;2023-02-12T08:37:03;148423.66;;;4.57;100.00
6599;BME280;3335;43.198;27.918;2023-02-12T08:39:30;148427.41;;;4.59;100.00
6599;BME280;3335;43.198;27.918;2023-02-12T08:41:58;148454.78;;;4.70;100.00
6599;BME280;3335;43.198;27.918;2023-02-12T08:44:25;148454.78;;;4.70;100.00
6599;BME280;3335;43.198;27.918;2023-02-12T08:46:52;148462.22;;;4.73;100.00
6599;BME280;3335;43.198;27.918;2023-02-12T08:49:21;148488.34;;;4.83;100.00
6599;BME280;3335;43.198;27.918;2023-02-12T08:51:50;148509.50;;;4.92;100.00
6599;BME280;3335;43.198;27.918;2023-02-12T08:54:20;148509.50;;;4.92;100.00
6599;BME280;3335;43.198;27.918;2023-02-12T08:56:48;148520.69;;;4.97;100.00
6599;BME280;3335;43.198;27.918;2023-02-12T08:59:15;148544.31;;;5.06;100.00
6599;BME280;3335;43.198;27.918;2023-02-12T09:01:43;148574.16;;;5.18;100.00
6599;BME280;3335;43.198;27.918;2023-02-12T09:04:13;148571.69;;;5.17;100.00
6599;BME280;3335;43.198;27.918;2023-02-12T09:06:42;148613.97;;;5.35;100.00
6599;BME280;3335;43.198;27.918;2023-02-12T09:09:09;148611.47;;;5.34;100.00
6599;BME280;3335;43.198;27.918;2023-02-12T09:11:38;148648.81;;;5.49;100.00
6599;BME280;3335;43.198;27.918;2023-02-12T09:14:07;148682.41;;;5.62;100.00
6599;BME280;3335;43.198;27.918;2023-02-12T09:16:35;148711.06;;;5.74;100.00
6599;BME280;3335;43.198;27.918;2023-02-12T09:19:04;148713.50;;;5.75;100.00
6599;BME280;3335;43.198;27.918;2023-02-12T09:21:31;148711.06;;;5.74;100.00
6599;BME280;3335;43.198;27.918;2023-02-12T09:23:59;148730.94;;;5.82;100.00
6599;BME280;3335;43.198;27.918;2023-02-12T09:26:26;148730.94;;;5.82;100.00
6599;BME280;3335;43.198;27.918;2023-02-12T09:28:55;148706.06;;;5.72;100.00
6599;BME280;3335;43.198;27.918;2023-02-12T09:31:23;148674.97;;;5.59;100.00
6599;BME280;3335;43.198;27.918;2023-02-12T09:33:52;148676.22;;;5.60;100.00
6599;BME280;3335;43.198;27.918;2023-02-12T09:36:19;148667.47;;;5.56;100.00
6599;BME280;3335;43.198;27.918;2023-02-12T09:38:46;148673.72;;;5.59;100.00
6599;BME280;3335;43.198;27.918;2023-02-12T09:41:44;148684.91;;;5.63;100.00
6599;BME280;3335;43.198;27.918;2023-02-12T09:44:19;148698.59;;;5.69;100.00
6599;BME280;3335;43.198;27.918;2023-02-12T09:46:51;148765.84;;;5.96;100.00
6599;BME280;3335;43.198;27.918;2023-02-12T09:49:31;148768.34;;;5.97;100.00
6599;BME280;3335;43.198;27.918;2023-02-12T09:52:13;148759.66;;;5.94;100.00
6599;BME280;3335;43.198;27.918;2023-02-12T09:54:42;148740.91;;;5.86;100.00
6599;BME280;3335;43.198;27.918;2023-02-12T09:57:15;148747.19;;;5.89;100.00
6599;BME280;3335;43.198;27.918;2023-02-12T09:59:47;148733.44;;;5.83;100.00
6599;BME280;3335;43.198;27.918;2023-02-12T10:02:18;148740.91;;;5.86;100.00
6599;BME280;3335;43.198;27.918;2023-02-12T10:04:46;148723.50;;;5.79;100.00
6599;BME280;3335;43.198;27.918;2023-02-12T10:07:19;148739.66;;;5.86;100.00
6599;BME280;3335;43.198;27.918;2023-02-12T10:10:02;148733.44;;;5.83;100.00
6599;BME280;3335;43.198;27.918;2023-02-12T10:12:38;148721.00;;;5.78;100.00
6599;BME280;3335;43.198;27.918;2023-02-12T10:15:22;148730.94;;;5.82;100.00
6599;BME280;3335;43.198;27.918;2023-02-12T10:17:56;148738.41;;;5.85;100.00
6599;BME280;3335;43.198;27.918;2023-02-12T10:20:47;148743.44;;;5.87;100.00
6599;BME280;3335;43.198;27.918;2023-02-12T10:23:26;148711.06;;;5.74;100.00
6599;BME280;3335;43.198;27.918;2023-02-12T10:26:02;148696.09;;;5.68;100.00
6599;BME280;3335;43.198;27.918;2023-02-12T10:28:38;148678.66;;;5.61;100.00
6599;BME280;3335;43.198;27.918;2023-02-12T10:31:13;148697.34;;;5.68;100.00
6599;BME280;3335;43.198;27.918;2023-02-12T10:33:44;148708.56;;;5.73;100.00
6599;BME280;3335;43.198;27.918;2023-02-12T10:36:17;148688.66;;;5.65;100.00
6599;BME280;3335;43.198;27.918;2023-02-12T10:38:50;148651.31;;;5.50;100.00
6599;BME280;3335;43.198;27.918;2023-02-12T10:41:19;148687.41;;;5.64;100.00
6599;BME280;3335;43.198;27.918;2023-02-12T10:43:48;148667.47;;;5.56;100.00
6599;BME280;3335;43.198;27.918;2023-02-12T10:46:16;148686.16;;;5.64;100.00
6599;BME280;3335;43.198;27.918;2023-02-12T10:48:45;148666.25;;;5.56;100.00
6599;BME280;3335;43.198;27.918;2023-02-12T10:51:28;148678.66;;;5.61;100.00
6599;BME280;3335;43.198;27.918;2023-02-12T10:54:32;148698.59;;;5.69;100.00
6599;BME280;3335;43.198;27.918;2023-02-12T10:57:05;148699.84;;;5.69;100.00
6599;BME280;3335;43.198;27.918;2023-02-12T10:59:33;148709.81;;;5.73;100.00
6599;BME280;3335;43.198;27.918;2023-02-12T11:02:01;148713.50;;;5.75;100.00
6599;BME280;3335;43.198;27.918;2023-02-12T11:04:31;148717.25;;;5.77;100.00
6599;BME280;3335;43.198;27.918;2023-02-12T11:07:00;148716.00;;;5.76;100.00
6599;BME280;3335;43.198;27.918;2023-02-12T11:09:30;148716.00;;;5.76;100.00
6599;BME280;3335;43.198;27.918;2023-02-12T11:11:59;148750.91;;;5.90;100.00
6599;BME280;3335;43.198;27.918;2023-02-12T11:14:27;148730.94;;;5.82;100.00
6599;BME280;3335;43.198;27.918;2023-02-12T11:16:56;148745.94;;;5.88;100.00
6599;BME280;3335;43.198;27.918;2023-02-12T11:19:28;148794.50;;;6.08;100.00
6599;BME280;3335;43.198;27.918;2023-02-12T11:22:05;148818.16;;;6.18;100.00
6599;BME280;3335;43.198;27.918;2023-02-12T11:24:34;148833.06;;;6.24;100.00
6599;BME280;3335;43.198;27.918;2023-02-12T11:27:12;148857.97;;;6.34;100.00
6599;BME280;3335;43.198;27.918;2023-02-12T11:29:39;148920.25;;;6.59;100.00
6599;BME280;3335;43.198;27.918;2023-02-12T11:32:08;148942.66;;;6.68;100.00
6599;BME280;3335;43.198;27.918;2023-02-12T11:34:42;148947.63;;;6.70;100.00
6599;BME280;3335;43.198;27.918;2023-02-12T11:37:15;148931.44;;;6.64;100.00
6599;BME280;3335;43.198;27.918;2023-02-12T11:39:46;149037.34;;;7.07;100.00
6599;BME280;3335;43.198;27.918;2023-02-12T11:42:16;149046.03;;;7.10;100.00
6599;BME280;3335;43.198;27.918;2023-02-12T11:44:49;149044.78;;;7.10;100.00
6599;BME280;3335;43.198;27.918;2023-02-12T11:47:19;149029.81;;;7.03;100.00
6599;BME280;3335;43.198;27.918;2023-02-12T11:49:51;149034.81;;;7.06;100.00
6599;BME280;3335;43.198;27.918;2023-02-12T11:52:22;149022.38;;;7.00;100.00
6599;BME280;3335;43.198;27.918;2023-02-12T11:54:51;149019.88;;;6.99;100.00
6599;BME280;3335;43.198;27.918;2023-02-12T11:57:35;148978.78;;;6.83;100.00
6599;BME280;3335;43.198;27.918;2023-02-12T12:00:05;149011.16;;;6.96;100.00
6599;BME280;3335;43.198;27.918;2023-02-12T12:02:41;148990.00;;;6.87;100.00
6599;BME280;3335;43.198;27.918;2023-02-12T12:05:15;148951.38;;;6.72;100.00
6599;BME280;3335;43.198;27.918;2023-02-12T12:07:47;148922.75;;;6.60;100.00
6599;BME280;3335;43.198;27.918;2023-02-12T12:10:20;148901.53;;;6.51;100.00
6599;BME280;3335;43.198;27.918;2023-02-12T12:12:55;148743.44;;;5.87;100.00
6599;BME280;3335;43.198;27.918;2023-02-12T12:15:25;148799.44;;;6.10;100.00
6599;BME280;3335;43.198;27.918;2023-02-12T12:18:19;148755.91;;;5.92;100.00
6599;BME280;3335;43.198;27.918;2023-02-12T12:21:12;148763.34;;;5.95;100.00
6599;BME280;3335;43.198;27.918;2023-02-12T12:23:48;148753.41;;;5.91;100.00
6599;BME280;3335;43.198;27.918;2023-02-12T12:26:23;148713.50;;;5.75;100.00
6599;BME280;3335;43.198;27.918;2023-02-12T12:28:56;148706.06;;;5.72;100.00
6599;BME280;3335;43.198;27.918;2023-02-12T12:31:29;148662.50;;;5.54;100.00
6599;BME280;3335;43.198;27.918;2023-02-12T12:34:02;148703.56;;;5.71;100.00
6599;BME280;3335;43.198;27.918;2023-02-12T12:39:35;148724.75;;;5.80;100.00
6599;BME280;3335;43.198;27.918;2023-02-12T12:42:30;148729.69;;;5.82;100.00
6599;BME280;3335;43.198;27.918;2023-02-12T12:45:13;148770.84;;;5.98;100.00
6599;BME280;3335;43.198;27.918;2023-02-12T12:47:53;148755.91;;;5.92;100.00
6599;BME280;3335;43.198;27.918;2023-02-12T12:50:34;148772.06;;;5.99;100.00
6599;BME280;3335;43.198;27.918;2023-02-12T12:53:23;148737.16;;;5.85;100.00
6599;BME280;3335;43.198;27.918;2023-02-12T12:56:08;148785.75;;;6.04;100.00
6599;BME280;3335;43.198;27.918;2023-02-12T12:58:47;148753.41;;;5.91;100.00
6599;BME280;3335;43.198;27.918;2023-02-12T13:01:43;148745.94;;;5.88;100.00
6599;BME280;3335;43.198;27.918;2023-02-12T13:04:48;148760.84;;;5.94;100.00
6599;BME280;3335;43.198;27.918;2023-02-12T13:07:30;148735.94;;;5.84;100.00
6599;BME280;3335;43.198;27.918;2023-02-12T13:10:16;148699.84;;;5.69;100.00
6599;BME280;3335;43.198;27.918;2023-02-12T13:12:54;148764.59;;;5.96;100.00
6599;BME280;3335;43.198;27.918;2023-02-12T13:15:30;148694.84;;;5.67;100.00
6599;BME280;3335;43.198;27.918;2023-02-12T13:18:08;148709.81;;;5.73;100.00
6599;BME280;3335;43.198;27.918;2023-02-12T13:20:46;148698.59;;;5.69;100.00
6599;BME280;3335;43.198;27.918;2023-02-12T13:23:18;148711.06;;;5.74;100.00
6599;BME280;3335;43.198;27.918;2023-02-12T13:25:54;148688.66;;;5.65;100.00
6599;BME280;3335;43.198;27.918;2023-02-12T13:28:30;148686.16;;;5.64;100.00